createdAt,value
2018-08-03T00:01:23.459Z,26.80
2018-08-03T00:04:56.713Z,26.70
2018-08-03T00:08:29.947Z,26.60
2018-08-03T00:12:03.173Z,26.60
2018-08-03T00:15:36.397Z,26.60
2018-08-03T00:19:09.618Z,26.60
2018-08-03T00:22:42.831Z,26.50
2018-08-03T00:26:16.048Z,26.50
2018-08-03T00:29:49.280Z,26.50
2018-08-03T00:33:22.925Z,26.40
2018-08-03T00:36:56.177Z,26.40
2018-08-03T00:40:29.415Z,26.40
2018-08-03T00:44:02.662Z,26.30
2018-08-03T00:47:35.992Z,26.30
2018-08-03T00:51:09.242Z,26.30
2018-08-03T00:54:42.482Z,26.20
2018-08-03T01:01:48.691Z,26.20
2018-08-03T01:05:21.933Z,26.20
2018-08-03T01:08:55.159Z,26.10
2018-08-03T01:12:28.399Z,26.10
2018-08-03T01:16:01.644Z,26.10
2018-08-03T01:19:34.883Z,26.00
2018-08-03T01:23:08.112Z,25.90
2018-08-03T01:26:41.432Z,25.90
2018-08-03T01:30:14.724Z,25.80
2018-08-03T01:33:47.982Z,25.70
2018-08-03T01:37:21.225Z,25.70
2018-08-03T01:40:54.541Z,25.70
2018-08-03T01:44:27.810Z,25.70
2018-08-03T01:48:01.035Z,25.70
2018-08-03T01:51:34.278Z,25.60
2018-08-03T01:55:07.536Z,25.60
2018-08-03T01:58:40.893Z,25.60
2018-08-03T02:02:14.128Z,25.60
2018-08-03T02:05:47.361Z,25.60
2018-08-03T02:09:20.610Z,25.60
2018-08-03T02:12:53.849Z,25.50
2018-08-03T02:16:27.092Z,25.40
2018-08-03T02:20:00.330Z,25.40
2018-08-03T02:23:33.564Z,25.40
2018-08-03T02:27:06.804Z,25.40
2018-08-03T02:30:40.060Z,25.40
2018-08-03T02:34:13.361Z,25.40
2018-08-03T02:37:46.548Z,25.40
2018-08-03T02:41:19.799Z,25.40
2018-08-03T02:44:53.033Z,25.30
2018-08-03T02:48:26.281Z,25.30
2018-08-03T02:51:59.559Z,25.20
2018-08-03T02:55:32.804Z,25.20
2018-08-03T02:59:06.060Z,25.20
2018-08-03T03:02:39.416Z,25.20
2018-08-03T03:06:12.666Z,25.10
2018-08-03T03:09:45.912Z,25.10
2018-08-03T03:13:19.130Z,25.10
2018-08-03T03:16:52.404Z,25.10
2018-08-03T03:20:25.655Z,25.10
2018-08-03T03:23:58.905Z,25.00
2018-08-03T03:27:32.128Z,25.00
2018-08-03T03:31:05.387Z,25.00
2018-08-03T03:34:38.720Z,24.90
2018-08-03T03:38:11.957Z,24.90
2018-08-03T03:41:45.205Z,24.90
2018-08-03T03:45:18.437Z,24.80
2018-08-03T03:48:51.781Z,24.80
2018-08-03T03:59:31.013Z,24.70
2018-08-03T04:03:04.248Z,24.70
2018-08-03T04:06:37.488Z,24.70
2018-08-03T04:10:11.096Z,24.70
2018-08-03T04:13:44.325Z,24.70
2018-08-03T04:17:17.569Z,24.70
2018-08-03T04:20:52.424Z,24.70
2018-08-03T04:24:25.656Z,24.70
2018-08-03T04:27:58.908Z,24.60
2018-08-03T04:35:05.205Z,24.60
2018-08-03T04:38:38.456Z,24.60
2018-08-03T04:42:11.767Z,24.60
2018-08-03T04:45:44.984Z,24.60
2018-08-03T04:49:18.204Z,24.70
2018-08-03T04:52:51.537Z,24.70
2018-08-03T04:56:24.769Z,24.70
2018-08-03T04:59:57.992Z,24.80
2018-08-03T05:03:31.247Z,24.80
2018-08-03T05:07:04.493Z,24.80
2018-08-03T05:10:37.772Z,24.80
2018-08-03T05:14:11.210Z,24.70
2018-08-03T05:17:44.544Z,24.70
2018-08-03T05:28:23.882Z,24.80
2018-08-03T05:31:57.132Z,24.90
2018-08-03T05:35:30.416Z,24.90
2018-08-03T05:39:04.920Z,25.00
2018-08-03T05:42:38.233Z,25.10
2018-08-03T05:46:11.416Z,25.20
2018-08-03T05:49:44.662Z,25.20
2018-08-03T05:53:17.993Z,25.40
2018-08-03T05:56:51.756Z,25.40
2018-08-03T06:00:25.110Z,25.50
2018-08-03T06:03:58.367Z,25.70
2018-08-03T06:07:31.623Z,25.90
2018-08-03T06:11:04.862Z,26.00
2018-08-03T06:14:38.163Z,26.00
2018-08-03T06:18:11.394Z,26.00
2018-08-03T06:21:44.637Z,26.10
2018-08-03T06:25:17.889Z,26.10
2018-08-03T06:28:51.214Z,26.20
2018-08-03T06:32:24.479Z,26.30
2018-08-03T06:35:57.828Z,26.50
2018-08-03T06:39:31.093Z,26.50
2018-08-03T06:43:04.336Z,26.70
2018-08-03T06:46:37.620Z,26.80
2018-08-03T06:50:10.868Z,26.90
2018-08-03T06:53:44.283Z,27.00
2018-08-03T06:57:17.544Z,27.10
2018-08-03T07:00:50.771Z,27.10
2018-08-03T07:04:24.057Z,27.20
2018-08-03T07:07:57.255Z,27.40
2018-08-03T07:15:03.501Z,27.60
2018-08-03T07:18:36.732Z,27.70
2018-08-03T07:25:42.963Z,27.90
2018-08-03T07:29:16.209Z,27.90
2018-08-03T07:32:49.453Z,28.00
2018-08-03T07:36:22.696Z,28.10
2018-08-03T07:39:55.963Z,28.20
2018-08-03T07:43:29.207Z,28.30
2018-08-03T07:47:02.420Z,28.30
2018-08-03T07:50:35.681Z,28.30
2018-08-03T07:54:08.909Z,28.40
2018-08-03T07:57:42.252Z,28.50
2018-08-03T08:01:15.476Z,28.60
2018-08-03T08:04:48.719Z,28.80
2018-08-03T08:08:21.973Z,28.90
2018-08-03T08:11:55.200Z,29.10
2018-08-03T08:15:28.441Z,29.30
2018-08-03T08:22:34.660Z,29.50
2018-08-03T08:26:07.990Z,29.60
2018-08-03T08:29:41.195Z,29.70
2018-08-03T08:33:14.460Z,29.90
2018-08-03T08:36:47.693Z,30.10
2018-08-03T08:40:20.948Z,30.20
2018-08-03T08:43:54.370Z,30.30
2018-08-03T08:47:27.437Z,30.30
2018-08-03T08:51:00.682Z,30.30
2018-08-03T08:54:33.931Z,30.40
2018-08-03T08:58:07.161Z,30.60
2018-08-03T09:01:40.401Z,30.70
2018-08-03T09:05:13.632Z,30.80
2018-08-03T09:12:19.976Z,31.00
2018-08-03T09:15:53.221Z,31.00
2018-08-03T09:19:26.545Z,31.10
2018-08-03T09:22:59.884Z,31.30
2018-08-03T09:26:33.108Z,31.40
2018-08-03T09:30:07.822Z,31.40
2018-08-03T09:33:41.068Z,31.50
2018-08-03T09:37:14.303Z,31.60
2018-08-03T09:40:47.524Z,31.80
2018-08-03T09:44:20.776Z,31.90
2018-08-03T09:47:54.008Z,32.00
2018-08-03T09:51:27.252Z,32.00
2018-08-03T09:58:33.496Z,32.20
2018-08-03T10:02:06.739Z,32.30
2018-08-03T10:05:39.975Z,32.50
2018-08-03T10:09:13.208Z,32.60
2018-08-03T10:12:46.446Z,32.80
2018-08-03T10:16:19.695Z,32.80
2018-08-03T10:19:52.929Z,32.90
2018-08-03T10:23:26.173Z,32.80
2018-08-03T10:26:59.449Z,32.80
2018-08-03T10:30:32.676Z,32.90
2018-08-03T10:34:05.947Z,32.90
2018-08-03T10:37:39.191Z,33.00
2018-08-03T10:41:12.432Z,33.10
2018-08-03T10:44:45.676Z,33.30
2018-08-03T10:48:18.911Z,33.50
2018-08-03T10:51:52.165Z,33.60
2018-08-03T10:55:25.433Z,33.70
2018-08-03T10:58:58.660Z,33.70
2018-08-03T11:02:31.880Z,33.70
2018-08-03T11:06:05.109Z,33.80
2018-08-03T11:09:38.346Z,33.70
2018-08-03T11:16:44.564Z,33.80
2018-08-03T11:20:18.676Z,33.80
2018-08-03T11:23:51.921Z,33.70
2018-08-03T11:27:25.152Z,33.80
2018-08-03T11:30:58.388Z,33.90
2018-08-03T11:34:31.611Z,33.90
2018-08-03T11:38:04.884Z,34.00
2018-08-03T11:41:38.123Z,34.00
2018-08-03T11:45:11.680Z,34.20
2018-08-03T11:48:44.933Z,34.40
2018-08-03T11:52:18.168Z,34.50
2018-08-03T11:55:51.444Z,34.50
2018-08-03T11:59:24.684Z,34.50
2018-08-03T12:02:58.011Z,34.50
2018-08-03T12:06:31.295Z,34.50
2018-08-03T12:10:04.698Z,34.50
2018-08-03T12:13:37.928Z,34.40
2018-08-03T12:17:11.332Z,34.40
2018-08-03T12:20:46.130Z,34.50
2018-08-03T12:24:19.368Z,34.70
2018-08-03T12:27:52.616Z,34.70
2018-08-03T12:31:25.938Z,34.90
2018-08-03T12:38:32.122Z,35.30
2018-08-03T12:42:05.372Z,35.50
2018-08-03T12:45:38.655Z,35.60
2018-08-03T12:49:11.866Z,35.70
2018-08-03T12:52:45.186Z,35.70
2018-08-03T12:56:18.384Z,35.70
2018-08-03T12:59:51.693Z,35.60
2018-08-03T13:03:24.874Z,35.50
2018-08-03T13:06:58.136Z,35.40
2018-08-03T13:10:31.372Z,35.20
2018-08-03T13:14:04.605Z,35.20
2018-08-03T13:17:37.840Z,35.20
2018-08-03T13:21:43.172Z,35.10
2018-08-03T13:25:16.436Z,35.00
2018-08-03T13:28:50.328Z,35.00
2018-08-03T13:32:23.576Z,35.00
2018-08-03T13:35:56.825Z,35.20
2018-08-03T13:39:30.120Z,35.50
2018-08-03T13:43:03.382Z,35.60
2018-08-03T13:46:36.644Z,35.80
2018-08-03T13:50:10.311Z,36.00
2018-08-03T13:53:44.929Z,36.10
2018-08-03T13:57:18.170Z,36.20
2018-08-03T14:00:56.683Z,36.30
2018-08-03T14:04:29.933Z,36.50
2018-08-03T14:08:03.199Z,36.70
2018-08-03T14:11:36.992Z,36.90
2018-08-03T14:15:10.900Z,37.00
2018-08-03T14:18:45.335Z,37.00
2018-08-03T14:25:51.955Z,36.70
2018-08-03T14:29:25.230Z,36.60
2018-08-03T14:32:58.500Z,36.80
2018-08-03T14:36:31.881Z,37.10
2018-08-03T14:40:05.292Z,37.40
2018-08-03T14:43:38.523Z,37.70
2018-08-03T14:47:12.090Z,37.80
2018-08-03T14:50:45.548Z,37.90
2018-08-03T14:54:18.805Z,38.00
2018-08-03T15:01:25.154Z,38.40
2018-08-03T15:04:58.413Z,38.50
2018-08-03T15:12:21.125Z,38.60
2018-08-03T15:15:54.352Z,38.60
2018-08-03T15:19:27.796Z,38.70
2018-08-03T15:26:34.065Z,39.00
2018-08-03T15:30:08.908Z,39.10
2018-08-03T15:33:42.171Z,39.20
2018-08-03T15:37:15.563Z,39.40
2018-08-03T15:40:48.902Z,39.30
2018-08-03T15:44:22.128Z,39.20
2018-08-03T15:47:55.376Z,39.10
2018-08-03T15:51:28.632Z,39.10
2018-08-03T15:55:01.857Z,39.30
2018-08-03T15:58:35.179Z,39.20
2018-08-03T16:02:08.396Z,39.20
2018-08-03T16:05:41.644Z,39.20
2018-08-03T16:09:14.912Z,39.30
2018-08-03T16:12:48.173Z,39.30
2018-08-03T16:16:21.453Z,39.30
2018-08-03T16:19:54.713Z,39.30
2018-08-03T16:23:27.964Z,39.40
2018-08-03T16:27:01.661Z,39.50
2018-08-03T16:30:34.938Z,39.60
2018-08-03T16:34:08.199Z,39.20
2018-08-03T16:37:41.448Z,38.70
2018-08-03T16:41:14.698Z,38.30
2018-08-03T16:44:47.952Z,37.90
2018-08-03T16:48:21.195Z,37.60
2018-08-03T16:51:54.457Z,37.30
2018-08-03T16:55:27.727Z,37.00
2018-08-03T16:59:01.438Z,36.80
2018-08-03T17:02:34.676Z,36.70
2018-08-03T17:06:07.926Z,36.50
2018-08-03T17:09:41.169Z,36.40
2018-08-03T17:13:14.457Z,36.30
2018-08-03T17:16:47.674Z,36.20
2018-08-03T17:20:20.990Z,36.00
2018-08-03T17:23:54.188Z,35.90
2018-08-03T17:27:27.471Z,35.80
2018-08-03T17:31:00.724Z,35.70
2018-08-03T17:34:33.952Z,35.60
2018-08-03T17:38:07.226Z,35.60
2018-08-03T17:41:40.785Z,35.50
2018-08-03T17:45:14.002Z,35.50
2018-08-03T17:48:47.250Z,35.40
2018-08-03T17:52:20.492Z,35.30
2018-08-03T17:55:53.742Z,34.90
2018-08-03T17:59:27.007Z,34.50
2018-08-03T18:03:00.298Z,34.10
2018-08-03T18:06:33.509Z,33.80
2018-08-03T18:10:07.081Z,33.60
2018-08-03T18:13:40.374Z,33.30
2018-08-03T18:17:13.637Z,33.10
2018-08-03T18:20:46.900Z,32.90
2018-08-03T18:24:20.135Z,32.70
2018-08-03T18:27:53.419Z,32.50
2018-08-03T18:31:26.697Z,32.30
2018-08-03T18:34:59.936Z,32.20
2018-08-03T18:38:33.167Z,32.00
2018-08-03T18:42:06.409Z,31.90
2018-08-03T18:45:39.661Z,31.80
2018-08-03T18:52:45.910Z,31.60
2018-08-03T18:56:19.169Z,31.60
2018-08-03T18:59:52.415Z,31.50
2018-08-03T19:03:25.664Z,31.50
2018-08-03T19:06:58.917Z,31.50
2018-08-03T19:10:32.168Z,31.40
2018-08-03T19:14:06.257Z,31.30
2018-08-03T19:17:39.499Z,31.30
2018-08-03T19:21:12.736Z,31.30
2018-08-03T19:24:45.999Z,31.30
2018-08-03T19:28:19.273Z,31.30
2018-08-03T19:35:25.531Z,31.10
2018-08-03T19:38:58.768Z,31.00
2018-08-03T19:42:32.012Z,30.90
2018-08-03T19:46:05.326Z,30.70
2018-08-03T19:49:38.568Z,30.60
2018-08-03T19:53:11.800Z,30.50
2018-08-03T19:56:45.212Z,30.30
2018-08-03T20:00:18.456Z,30.20
2018-08-03T20:03:51.705Z,30.20
2018-08-03T20:07:24.952Z,30.10
2018-08-03T20:10:58.214Z,30.10
2018-08-03T20:14:31.732Z,30.00
2018-08-03T20:18:05.155Z,30.00
2018-08-03T20:21:38.418Z,29.90
2018-08-03T20:25:11.687Z,29.90
2018-08-03T20:28:44.925Z,29.90
2018-08-03T20:32:18.241Z,30.00
2018-08-03T20:35:51.489Z,30.00
2018-08-03T20:39:24.728Z,30.00
2018-08-03T20:42:57.995Z,30.00
2018-08-03T20:46:31.354Z,29.90
2018-08-03T20:50:04.646Z,29.90
2018-08-03T20:53:37.891Z,29.90
2018-08-03T20:57:11.147Z,29.80
2018-08-03T21:00:44.404Z,29.80
2018-08-03T21:04:17.650Z,29.70
2018-08-03T21:07:50.944Z,29.60
2018-08-03T21:11:24.363Z,29.60
2018-08-03T21:14:57.935Z,29.50
2018-08-03T21:18:31.169Z,29.50
2018-08-03T21:22:04.468Z,29.50
2018-08-03T21:25:37.704Z,29.50
2018-08-03T21:29:11.034Z,29.50
2018-08-03T21:32:44.280Z,29.50
2018-08-03T21:36:17.560Z,29.50
2018-08-03T21:39:50.792Z,29.50
2018-08-03T21:46:57.008Z,29.40
2018-08-03T21:50:30.248Z,29.30
2018-08-03T21:54:04.003Z,29.20
2018-08-03T21:57:37.239Z,29.20
2018-08-03T22:01:12.364Z,29.20
2018-08-03T22:04:45.607Z,29.20
2018-08-03T22:08:18.877Z,29.10
2018-08-03T22:11:52.154Z,29.10
2018-08-03T22:15:25.413Z,29.10
2018-08-03T22:18:58.703Z,29.00
2018-08-03T22:22:31.891Z,29.00
2018-08-03T22:26:05.139Z,29.00
2018-08-03T22:36:44.409Z,28.90
2018-08-03T22:40:17.743Z,28.90
2018-08-03T22:43:50.975Z,28.90
2018-08-03T22:47:24.216Z,28.90
2018-08-03T22:50:57.455Z,28.90
2018-08-03T22:54:30.696Z,28.90
2018-08-03T22:58:04.144Z,28.80
2018-08-03T23:01:37.420Z,28.80
2018-08-03T23:05:10.680Z,28.80
2018-08-03T23:08:43.955Z,28.80
2018-08-03T23:12:17.288Z,28.70
2018-08-03T23:15:50.548Z,28.70
2018-08-03T23:19:23.788Z,28.70
2018-08-03T23:22:57.042Z,28.70
2018-08-03T23:26:30.276Z,28.60
2018-08-03T23:30:03.548Z,28.60
2018-08-03T23:33:36.790Z,28.50
2018-08-03T23:37:10.070Z,28.50
2018-08-03T23:40:43.364Z,28.50
2018-08-03T23:44:16.625Z,28.50
2018-08-03T23:47:49.901Z,28.50
2018-08-03T23:51:23.177Z,28.50
2018-08-03T23:54:56.440Z,28.50
2018-08-03T23:58:29.673Z,28.50
